Time;durP1;ratioP1;P1;durP2;ratioP2;P2;SDS_P1;SDS_P2;PMS_P1;PMS_P2;Temp;Humidity;BMP_temperature;BMP_pressure;BME280_temperature;BME280_humidity;BME280_pressure;Samples;Min_cycle;Max_cycle;Signal;HPM_P1;HPM_P2
2023/06/20 06:01:14;;;;;;;11.27;8.57;;;24.50;99.90;;;;;;5481442;23;20041;-79
2023/06/20 06:03:40;;;;;;;12.07;8.52;;;24.50;99.90;;;;;;4898007;29;20163;-82
2023/06/20 06:06:10;;;;;;;13.68;7.95;;;24.40;99.90;;;;;;4897444;29;20049;-81
2023/06/20 06:08:37;;;;;;;12.03;8.70;;;24.40;99.90;;;;;;4889687;29;20056;-81
2023/06/20 06:11:03;;;;;;;13.20;9.77;;;24.50;99.90;;;;;;4885695;29;20294;-82
2023/06/20 06:13:32;;;;;;;15.70;9.70;;;24.40;99.90;;;;;;4875854;29;20057;-84
2023/06/20 06:15:58;;;;;;;10.93;9.10;;;24.40;99.90;;;;;;4867516;29;20124;-84
2023/06/20 06:18:27;;;;;;;13.35;10.07;;;24.30;99.90;;;;;;4878419;29;20057;-84
2023/06/20 06:20:53;;;;;;;17.85;9.75;;;24.30;99.90;;;;;;4884518;29;20052;-84
2023/06/20 06:23:20;;;;;;;14.30;9.98;;;24.20;99.90;;;;;;4893196;29;20045;-84
2023/06/20 06:25:47;;;;;;;18.77;11.57;;;24.20;99.90;;;;;;4893093;29;20076;-84
2023/06/20 06:28:14;;;;;;;18.30;11.30;;;24.20;99.90;;;;;;4889932;29;20508;-84
2023/06/20 06:30:40;;;;;;;16.15;10.35;;;24.20;99.90;;;;;;4872509;29;20458;-83
2023/06/20 06:33:08;;;;;;;13.63;10.00;;;24.20;99.90;;;;;;4886820;29;20076;-85
2023/06/20 06:35:35;;;;;;;11.75;9.75;;;24.10;99.90;;;;;;4874302;29;20439;-83
2023/06/20 06:38:03;;;;;;;13.57;9.45;;;24.10;99.90;;;;;;4895044;29;20080;-83
2023/06/20 06:40:31;;;;;;;12.65;9.73;;;24.10;99.90;;;;;;4888496;29;20053;-83
2023/06/20 06:42:58;;;;;;;17.92;9.85;;;24.10;99.90;;;;;;4889297;29;20049;-83
2023/06/20 06:45:25;;;;;;;14.75;9.13;;;24.10;99.90;;;;;;4887129;29;20060;-84
2023/06/20 06:47:53;;;;;;;12.73;8.32;;;24.10;99.90;;;;;;4891644;29;20104;-83
2023/06/20 06:50:20;;;;;;;15.07;10.10;;;24.20;99.90;;;;;;4887795;29;20071;-84
2023/06/20 06:52:47;;;;;;;16.40;9.98;;;24.20;99.90;;;;;;4891294;29;20049;-82
2023/06/20 06:55:14;;;;;;;14.38;9.30;;;24.20;99.90;;;;;;4891085;29;20051;-83
2023/06/20 06:57:41;;;;;;;12.70;8.40;;;24.30;99.90;;;;;;4884037;29;20459;-83
2023/06/20 07:00:14;;;;;;;18.42;8.35;;;24.30;99.90;;;;;;4882073;29;20049;-82
2023/06/20 07:02:41;;;;;;;14.43;8.32;;;24.40;99.90;;;;;;4886165;29;20081;-84
2023/06/20 07:05:09;;;;;;;13.15;8.90;;;24.40;99.90;;;;;;4883135;29;20140;-84
2023/06/20 07:07:36;;;;;;;16.80;8.57;;;24.50;99.90;;;;;;4888355;29;20091;-83
2023/06/20 07:10:03;;;;;;;12.45;8.88;;;24.50;99.90;;;;;;4890689;29;20077;-84
2023/06/20 07:12:31;;;;;;;13.80;8.40;;;24.60;99.90;;;;;;4887774;29;20052;-83
2023/06/20 07:14:57;;;;;;;11.82;8.07;;;24.60;99.90;;;;;;4894558;29;20108;-84
2023/06/20 07:17:25;;;;;;;8.88;7.07;;;24.60;99.90;;;;;;4892617;29;20132;-84
2023/06/20 07:19:52;;;;;;;10.05;7.53;;;24.70;99.90;;;;;;4896429;29;20132;-84
2023/06/20 07:22:20;;;;;;;9.30;6.60;;;24.70;99.90;;;;;;4891827;29;20057;-84
2023/06/20 07:24:48;;;;;;;11.18;6.90;;;24.80;99.90;;;;;;4893111;29;20109;-82
2023/06/20 07:27:18;;;;;;;10.43;6.70;;;24.80;99.90;;;;;;4889868;29;20113;-85
2023/06/20 07:29:45;;;;;;;9.35;6.32;;;24.90;99.90;;;;;;4892254;29;20056;-83
2023/06/20 07:32:14;;;;;;;8.68;6.32;;;25.00;99.90;;;;;;4886352;29;20117;-85
2023/06/20 07:34:41;;;;;;;8.88;5.60;;;25.00;99.90;;;;;;4890394;29;20422;-84
2023/06/20 07:37:07;;;;;;;13.55;9.73;;;25.10;99.90;;;;;;4887699;29;20107;-82
2023/06/20 07:39:37;;;;;;;11.05;8.82;;;25.10;99.90;;;;;;4882120;29;20503;-83
2023/06/20 07:42:04;;;;;;;10.18;6.40;;;25.20;99.90;;;;;;4897473;29;20056;-82
2023/06/20 07:44:31;;;;;;;7.88;5.20;;;25.20;99.90;;;;;;4896421;29;20052;-82
2023/06/20 07:46:58;;;;;;;7.95;5.50;;;25.20;99.90;;;;;;4891912;29;20041;-81
2023/06/20 07:49:24;;;;;;;9.27;5.32;;;25.30;99.90;;;;;;4891649;29;20053;-82
2023/06/20 07:51:51;;;;;;;7.22;4.90;;;25.30;99.90;;;;;;4890869;29;20048;-82
2023/06/20 07:54:18;;;;;;;7.85;4.10;;;25.40;99.90;;;;;;4895325;29;20049;-82
2023/06/20 07:56:44;;;;;;;9.75;4.10;;;25.50;99.90;;;;;;4899304;29;20049;-82
2023/06/20 07:59:11;;;;;;;5.88;3.85;;;25.50;99.90;;;;;;4900698;29;20063;-81
2023/06/20 08:01:38;;;;;;;6.57;3.70;;;25.60;99.90;;;;;;4903164;29;20045;-82
2023/06/20 08:04:05;;;;;;;9.05;3.47;;;25.70;99.90;;;;;;4901452;29;20056;-83
2023/06/20 08:06:32;;;;;;;7.70;3.63;;;25.70;99.90;;;;;;4908380;29;20084;-84
2023/06/20 08:08:59;;;;;;;11.30;4.63;;;25.80;99.90;;;;;;4881639;29;20049;-82
2023/06/20 08:11:26;;;;;;;8.50;3.50;;;25.90;99.90;;;;;;4892661;29;20052;-82
2023/06/20 08:13:53;;;;;;;5.75;3.33;;;25.90;99.90;;;;;;4898255;29;20052;-83
2023/06/20 08:16:20;;;;;;;4.32;3.25;;;26.00;99.90;;;;;;4905408;29;20075;-82
2023/06/20 08:18:46;;;;;;;7.47;3.35;;;26.10;99.90;;;;;;4893524;29;20517;-83
2023/06/20 08:21:13;;;;;;;7.63;3.88;;;26.10;99.90;;;;;;4903609;29;20053;-82
2023/06/20 08:23:40;;;;;;;3.35;2.85;;;26.20;99.90;;;;;;4896746;29;20498;-82
2023/06/20 08:26:07;;;;;;;11.45;4.40;;;26.20;99.90;;;;;;4902593;29;20648;-82
2023/06/20 08:28:33;;;;;;;8.00;3.55;;;26.30;99.90;;;;;;4894204;29;20078;-82
2023/06/20 08:31:02;;;;;;;6.80;3.30;;;26.30;99.90;;;;;;4903142;29;20040;-82
2023/06/20 08:33:28;;;;;;;6.78;3.20;;;26.50;99.90;;;;;;4894781;29;20128;-81
2023/06/20 08:35:56;;;;;;;6.45;3.88;;;26.50;99.90;;;;;;4900083;29;20430;-83
2023/06/20 08:38:23;;;;;;;5.20;3.60;;;26.50;99.90;;;;;;4873055;29;20057;-83
2023/06/20 08:40:50;;;;;;;7.43;3.42;;;26.60;99.90;;;;;;4901340;29;20120;-83
2023/06/20 08:43:17;;;;;;;5.60;3.60;;;26.70;99.90;;;;;;4900102;29;20057;-83
2023/06/20 08:45:45;;;;;;;6.82;3.17;;;26.70;99.90;;;;;;4898248;29;20045;-83
2023/06/20 08:48:12;;;;;;;9.10;3.60;;;26.80;99.90;;;;;;4899124;29;20049;-83
2023/06/20 08:50:39;;;;;;;5.38;3.67;;;26.80;99.90;;;;;;4901810;29;20473;-83
2023/06/20 08:53:09;;;;;;;3.80;3.35;;;26.90;99.90;;;;;;4905354;29;20091;-83
2023/06/20 08:55:36;;;;;;;;;;;27.00;99.90;;;;;;4898432;29;20614;-83
2023/06/20 08:58:07;;;;;;;8.68;3.60;;;27.10;99.90;;;;;;4899071;29;19927;-82
2023/06/20 09:00:34;;;;;;;4.65;3.60;;;27.10;99.90;;;;;;4894996;29;20060;-83
2023/06/20 09:03:01;;;;;;;6.05;3.55;;;27.10;99.90;;;;;;4898530;29;20104;-83
2023/06/20 09:05:31;;;;;;;5.32;2.85;;;27.20;99.90;;;;;;4893675;29;20131;-83
2023/06/20 09:07:58;;;;;;;4.38;3.30;;;27.30;99.90;;;;;;4897710;29;20044;-83
2023/06/20 09:10:25;;;;;;;5.13;3.72;;;27.40;99.90;;;;;;4891168;29;20083;-83
2023/06/20 09:12:56;;;;;;;5.35;3.03;;;27.40;99.90;;;;;;4895936;29;20047;-83
2023/06/20 09:15:27;;;;;;;3.95;3.05;;;27.50;99.90;;;;;;4884200;29;20071;-83
2023/06/20 09:18:01;;;;;;;7.50;3.30;;;27.50;99.90;;;;;;4896784;29;20048;-83
2023/06/20 09:20:30;;;;;;;9.50;3.78;;;27.60;99.90;;;;;;4893033;29;20088;-82
2023/06/20 09:22:58;;;;;;;3.78;3.08;;;27.70;99.90;;;;;;4904578;29;20084;-83
2023/06/20 09:25:26;;;;;;;5.60;3.50;;;27.70;99.90;;;;;;4894294;29;20049;-82
2023/06/20 09:27:54;;;;;;;7.00;3.35;;;27.80;99.90;;;;;;4900822;29;20112;-84
2023/06/20 09:30:21;;;;;;;7.60;3.67;;;27.80;99.90;;;;;;4885913;29;20079;-83
2023/06/20 09:32:51;;;;;;;6.60;4.22;;;27.80;99.90;;;;;;4900174;29;20045;-83
2023/06/20 09:35:20;;;;;;;8.05;3.70;;;27.90;99.90;;;;;;4903651;29;20101;-83
2023/06/20 09:37:49;;;;;;;7.78;4.22;;;28.00;99.90;;;;;;4905928;29;20057;-83
2023/06/20 09:40:24;;;;;;;9.82;3.63;;;28.00;99.90;;;;;;4886022;29;20059;-82
2023/06/20 09:42:56;;;;;;;8.18;3.67;;;28.10;99.90;;;;;;4898411;29;20545;-83
2023/06/20 09:45:23;;;;;;;5.65;3.00;;;28.10;99.90;;;;;;4885157;29;20049;-83
2023/06/20 09:47:51;;;;;;;4.80;3.60;;;28.20;99.90;;;;;;4903511;29;20048;-84
2023/06/20 09:50:19;;;;;;;6.47;4.05;;;28.20;99.90;;;;;;4881997;29;20132;-83
2023/06/20 09:52:53;;;;;;;5.88;3.50;;;28.20;99.90;;;;;;4902715;29;20045;-83
2023/06/20 09:55:23;;;;;;;6.30;3.45;;;28.30;99.90;;;;;;4890134;29;20057;-84
2023/06/20 09:57:53;;;;;;;6.93;3.80;;;28.40;99.90;;;;;;4873681;29;20061;-83
2023/06/20 10:00:22;;;;;;;7.43;3.75;;;28.40;99.90;;;;;;4892763;29;20056;-83
2023/06/20 10:02:49;;;;;;;10.43;3.78;;;28.50;99.50;;;;;;4897376;29;20135;-82
2023/06/20 10:05:19;;;;;;;9.05;3.72;;;28.50;99.30;;;;;;4891817;29;20049;-83
2023/06/20 10:07:47;;;;;;;7.68;3.40;;;28.60;99.90;;;;;;4897478;29;20067;-83
2023/06/20 10:10:16;;;;;;;7.80;3.38;;;28.60;98.80;;;;;;4891975;29;20046;-82
2023/06/20 10:12:44;;;;;;;7.15;3.50;;;28.70;99.20;;;;;;4888270;29;20089;-83
2023/06/20 10:15:14;;;;;;;5.70;3.38;;;28.70;99.90;;;;;;4897479;29;20053;-83
2023/06/20 10:17:42;;;;;;;8.20;3.65;;;28.80;99.90;;;;;;4896200;29;20056;-83
2023/06/20 10:20:37;;;;;;;7.68;3.40;;;28.80;99.90;;;;;;4887907;29;20053;-83
2023/06/20 10:23:07;;;;;;;9.82;3.90;;;28.90;98.50;;;;;;4874111;29;20049;-84
2023/06/20 10:25:34;;;;;;;;;;;28.90;97.60;;;;;;4895808;29;20055;-83
2023/06/20 10:28:03;;;;;;;5.38;3.22;;;29.00;96.90;;;;;;4886506;29;19923;-83
2023/06/20 10:30:58;;;;;;;9.27;3.25;;;29.00;97.20;;;;;;4873615;29;20057;-83
2023/06/20 10:33:36;;;;;;;5.50;3.38;;;29.00;97.90;;;;;;4892988;29;20086;-83
2023/06/20 10:36:09;;;;;;;5.72;3.10;;;29.00;98.10;;;;;;4888765;29;20057;-83
2023/06/20 10:38:38;;;;;;;7.00;3.10;;;29.00;97.30;;;;;;4894663;29;20455;-82
2023/06/20 10:41:23;;;;;;;6.80;3.80;;;29.00;97.90;;;;;;4886006;29;20068;-83
2023/06/20 10:43:55;;;;;;;5.25;3.30;;;29.10;97.90;;;;;;4892353;29;20053;-83
2023/06/20 10:46:28;;;;;;;6.50;3.67;;;29.10;97.80;;;;;;4894530;29;20141;-83
2023/06/20 10:48:55;;;;;;;9.25;3.90;;;29.10;97.30;;;;;;4900765;29;20057;-83
2023/06/20 10:51:23;;;;;;;4.93;2.83;;;29.10;97.70;;;;;;4896352;29;20053;-83
2023/06/20 10:53:49;;;;;;;5.28;3.50;;;29.10;97.90;;;;;;4901103;29;20041;-83
2023/06/20 10:56:27;;;;;;;5.68;3.40;;;29.10;97.50;;;;;;4881771;29;20089;-83
2023/06/20 10:58:53;;;;;;;10.05;3.70;;;29.20;98.00;;;;;;4898429;29;20140;-83
2023/06/20 11:01:26;;;;;;;6.55;3.75;;;29.20;98.20;;;;;;4896713;29;20057;-83
2023/06/20 11:03:53;;;;;;;5.53;3.92;;;29.20;97.60;;;;;;4899085;29;20086;-83
2023/06/20 11:06:20;;;;;;;9.75;3.80;;;29.20;97.60;;;;;;4899527;29;20069;-83
2023/06/20 11:08:46;;;;;;;9.40;3.83;;;29.20;97.20;;;;;;4895654;29;20049;-82
2023/06/20 11:11:13;;;;;;;11.18;4.15;;;29.20;97.80;;;;;;4901904;29;20084;-82
2023/06/20 11:13:43;;;;;;;7.43;4.00;;;29.20;97.50;;;;;;4897893;29;20096;-82
2023/06/20 11:16:19;;;;;;;6.68;3.30;;;29.20;97.90;;;;;;4902829;29;20052;-83
2023/06/20 11:18:46;;;;;;;7.53;3.53;;;29.20;97.90;;;;;;4894606;29;20048;-83
2023/06/20 11:21:15;;;;;;;7.78;3.67;;;29.30;97.40;;;;;;4900642;29;20108;-82
2023/06/20 11:23:42;;;;;;;8.02;3.80;;;29.30;97.50;;;;;;4897691;29;20152;-83
2023/06/20 11:26:09;;;;;;;7.47;3.55;;;29.30;97.20;;;;;;4899867;29;20052;-84
2023/06/20 11:28:36;;;;;;;6.85;3.58;;;29.40;96.90;;;;;;4893190;29;20503;-80
2023/06/20 11:31:10;;;;;;;6.45;3.83;;;29.40;97.10;;;;;;4895085;29;20391;-83
2023/06/20 11:33:37;;;;;;;15.07;3.95;;;29.50;96.80;;;;;;4896101;29;20056;-83
2023/06/20 11:36:05;;;;;;;8.73;3.90;;;29.60;96.80;;;;;;4898011;29;20053;-83
2023/06/20 11:38:31;;;;;;;12.45;4.03;;;29.60;96.20;;;;;;4896864;29;20536;-82
2023/06/20 11:41:06;;;;;;;8.88;4.03;;;29.60;96.70;;;;;;4903578;29;20521;-84
2023/06/20 11:43:43;;;;;;;8.82;3.83;;;29.60;96.00;;;;;;4879750;29;20061;-84
2023/06/20 11:46:12;;;;;;;9.07;3.55;;;29.60;96.30;;;;;;4895428;29;20133;-82
2023/06/20 11:48:51;;;;;;;8.50;3.93;;;29.60;97.00;;;;;;4894645;29;20049;-83
2023/06/20 11:51:24;;;;;;;11.00;4.88;;;29.70;97.20;;;;;;4887435;29;20293;-83
2023/06/20 11:54:08;;;;;;;9.30;3.67;;;29.60;96.80;;;;;;4891646;29;20101;-83
2023/06/20 11:56:34;;;;;;;8.43;3.60;;;29.70;96.90;;;;;;4902445;29;20049;-82
2023/06/20 11:59:02;;;;;;;8.77;3.78;;;29.70;97.40;;;;;;4896241;29;20044;-83
2023/06/20 12:01:30;;;;;;;8.43;3.50;;;29.70;96.60;;;;;;4905215;29;20461;-82
2023/06/20 12:04:03;;;;;;;7.10;4.25;;;29.80;97.20;;;;;;4896031;29;20049;-82
2023/06/20 12:06:34;;;;;;;7.63;3.20;;;29.80;97.00;;;;;;4903039;29;20048;-82
2023/06/20 12:09:11;;;;;;;10.73;3.50;;;29.80;96.80;;;;;;4894011;29;20052;-83
2023/06/20 12:11:55;;;;;;;7.35;3.70;;;29.80;97.20;;;;;;4901700;29;20132;-83
2023/06/20 12:14:24;;;;;;;9.25;4.10;;;29.80;97.30;;;;;;4893565;29;20072;-83
2023/06/20 12:16:51;;;;;;;;;;;29.90;97.80;;;;;;4904710;29;20140;-83
2023/06/20 12:19:19;;;;;;;7.47;3.88;;;29.90;97.20;;;;;;4894349;29;19934;-84
2023/06/20 12:21:46;;;;;;;8.52;3.42;;;29.90;96.70;;;;;;4901240;29;20068;-83
2023/06/20 12:24:13;;;;;;;8.18;4.00;;;30.00;97.30;;;;;;4890067;29;20060;-83
2023/06/20 12:26:42;;;;;;;9.95;3.45;;;30.00;98.00;;;;;;4901257;29;20518;-82
2023/06/20 12:29:08;;;;;;;11.98;4.07;;;30.00;97.40;;;;;;4888846;29;20060;-82
2023/06/20 12:31:35;;;;;;;8.82;3.78;;;30.00;96.80;;;;;;4900054;29;20136;-83
2023/06/20 12:34:02;;;;;;;7.28;3.53;;;30.00;97.20;;;;;;4894178;29;20068;-83
2023/06/20 12:36:31;;;;;;;8.63;3.78;;;30.10;97.20;;;;;;4900493;29;20052;-84
2023/06/20 12:38:58;;;;;;;12.95;4.88;;;30.10;96.50;;;;;;4895749;29;20132;-82
2023/06/20 12:41:35;;;;;;;10.65;4.10;;;30.10;97.00;;;;;;4900299;29;20057;-82
2023/06/20 12:44:03;;;;;;;8.02;3.58;;;30.20;97.30;;;;;;4895844;29;20053;-83
2023/06/20 12:46:30;;;;;;;7.03;3.42;;;30.20;97.10;;;;;;4895657;29;20052;-82
2023/06/20 12:48:58;;;;;;;10.30;4.88;;;30.20;97.20;;;;;;4886520;29;20045;-82
2023/06/20 12:51:25;;;;;;;8.00;4.00;;;30.30;96.60;;;;;;4864882;29;20045;-83
2023/06/20 12:53:51;;;;;;;8.60;3.53;;;30.30;96.80;;;;;;4893161;29;20074;-83
2023/06/20 12:56:18;;;;;;;6.97;3.28;;;30.30;96.80;;;;;;4897924;29;20075;-82
2023/06/20 12:58:45;;;;;;;9.45;3.63;;;30.40;96.40;;;;;;4895932;29;20093;-83
2023/06/20 13:01:12;;;;;;;6.47;3.10;;;30.40;96.20;;;;;;4893953;29;20049;-83
2023/06/20 13:03:39;;;;;;;8.25;4.43;;;30.40;95.80;;;;;;4894465;29;20057;-82
2023/06/20 13:06:07;;;;;;;9.48;3.72;;;30.50;94.90;;;;;;4897034;29;20496;-82
2023/06/20 13:08:37;;;;;;;9.82;3.80;;;30.50;94.60;;;;;;4893891;29;20057;-82
2023/06/20 13:11:04;;;;;;;11.48;4.05;;;30.50;95.50;;;;;;4891117;29;20045;-81
2023/06/20 13:13:31;;;;;;;11.00;3.78;;;30.50;95.60;;;;;;4903139;29;20072;-81
2023/06/20 13:15:57;;;;;;;9.40;2.95;;;30.50;95.30;;;;;;4895953;29;20108;-81
2023/06/20 13:18:24;;;;;;;10.85;3.40;;;30.60;94.70;;;;;;4902638;29;20059;-81
2023/06/20 13:20:52;;;;;;;11.52;3.90;;;30.60;94.80;;;;;;4898510;29;20052;-79
2023/06/20 13:23:19;;;;;;;15.73;4.15;;;30.70;95.10;;;;;;4889455;29;20053;-81
2023/06/20 13:25:46;;;;;;;8.82;3.13;;;30.70;94.50;;;;;;4899680;29;20135;-81
2023/06/20 13:28:13;;;;;;;15.30;3.20;;;30.70;94.60;;;;;;4902821;29;20044;-81
2023/06/20 13:30:39;;;;;;;11.57;2.97;;;30.70;94.30;;;;;;4893483;29;20049;-80
2023/06/20 13:33:10;;;;;;;6.85;3.60;;;30.80;94.50;;;;;;4901689;29;20054;-80
2023/06/20 13:35:36;;;;;;;8.80;3.40;;;30.90;95.40;;;;;;4883838;29;20131;-81
2023/06/20 13:38:04;;;;;;;11.52;3.33;;;30.90;94.30;;;;;;4902966;29;20059;-81
2023/06/20 13:40:31;;;;;;;14.45;3.50;;;31.00;94.20;;;;;;4898475;29;20052;-81
2023/06/20 13:42:58;;;;;;;10.40;3.53;;;31.00;94.20;;;;;;4884903;29;20044;-82
2023/06/20 13:45:24;;;;;;;12.77;4.28;;;31.00;93.40;;;;;;4898692;29;20667;-81
2023/06/20 13:47:52;;;;;;;12.77;3.03;;;31.10;93.90;;;;;;4901580;29;20049;-81
2023/06/20 13:50:19;;;;;;;7.50;2.88;;;31.10;93.90;;;;;;4897888;29;20152;-81
2023/06/20 13:52:47;;;;;;;12.00;3.17;;;31.10;93.70;;;;;;4894589;29;20053;-81
2023/06/20 13:55:14;;;;;;;11.50;3.40;;;31.20;93.30;;;;;;4891941;29;20443;-81
2023/06/20 13:57:41;;;;;;;14.45;3.60;;;31.20;93.20;;;;;;4900103;29;20052;-81
2023/06/20 14:00:11;;;;;;;13.90;3.13;;;31.20;92.60;;;;;;4899627;29;20057;-81
2023/06/20 14:02:40;;;;;;;12.43;4.05;;;31.20;93.30;;;;;;4897665;29;20055;-81
2023/06/20 14:05:08;;;;;;;11.98;3.42;;;31.30;93.90;;;;;;4885370;29;20072;-81
2023/06/20 14:07:35;;;;;;;14.30;4.28;;;31.30;93.60;;;;;;4899919;29;20108;-81
2023/06/20 14:10:03;;;;;;;11.73;4.03;;;31.30;94.20;;;;;;4897480;29;20521;-81
2023/06/20 14:12:29;;;;;;;7.07;3.50;;;31.30;93.30;;;;;;4898315;29;20049;-81
2023/06/20 14:14:58;;;;;;;11.30;3.55;;;31.40;93.80;;;;;;4899774;29;20602;-81
2023/06/20 14:17:28;;;;;;;7.35;3.55;;;31.40;94.50;;;;;;4923447;23;20052;-74
2023/06/20 14:19:55;;;;;;;10.60;3.80;;;31.40;94.30;;;;;;4867107;29;20403;-78
2023/06/20 14:22:22;;;;;;;8.15;3.58;;;31.40;94.20;;;;;;4868907;29;20053;-77
2023/06/20 14:24:49;;;;;;;11.18;3.72;;;31.50;94.00;;;;;;4870663;29;20053;-77
2023/06/20 14:27:16;;;;;;;8.93;3.42;;;31.50;94.10;;;;;;4869128;29;20140;-78
2023/06/20 14:29:43;;;;;;;9.95;4.32;;;31.50;94.30;;;;;;4873577;29;20056;-78
2023/06/20 14:32:10;;;;;;;8.15;4.40;;;31.50;95.00;;;;;;4868501;29;20049;-79
2023/06/20 14:34:37;;;;;;;12.93;4.65;;;31.60;95.90;;;;;;4875766;29;20128;-78
2023/06/20 14:37:04;;;;;;;9.13;4.53;;;31.60;95.90;;;;;;4870269;29;20057;-78
2023/06/20 14:39:31;;;;;;;9.65;4.88;;;31.60;96.10;;;;;;4876174;29;20078;-77
2023/06/20 14:41:58;;;;;;;9.35;4.40;;;31.60;96.10;;;;;;4868408;29;20050;-78
2023/06/20 14:44:25;;;;;;;8.50;4.63;;;31.60;96.20;;;;;;4875737;29;20118;-79
2023/06/20 14:46:53;;;;;;;8.73;4.75;;;31.70;96.20;;;;;;4870701;29;20095;-78
2023/06/20 14:49:20;;;;;;;9.18;4.47;;;31.70;96.70;;;;;;4875805;29;20048;-79
2023/06/20 14:51:50;;;;;;;8.60;3.90;;;31.80;96.50;;;;;;4869585;29;20049;-77
2023/06/20 14:54:17;;;;;;;10.43;4.40;;;31.70;96.10;;;;;;4866155;29;20056;-77
2023/06/20 14:56:44;;;;;;;10.02;4.63;;;31.70;95.70;;;;;;4874575;29;20097;-77
2023/06/20 14:59:14;;;;;;;6.97;4.72;;;31.70;95.80;;;;;;4885457;29;20434;-77
2023/06/20 15:01:42;;;;;;;11.93;5.10;;;31.70;95.80;;;;;;4874483;29;20053;-77
2023/06/20 15:04:11;;;;;;;11.30;4.93;;;31.70;96.10;;;;;;4874067;29;20105;-77
2023/06/20 15:06:39;;;;;;;11.10;5.07;;;31.70;95.80;;;;;;4874369;29;20049;-78
2023/06/20 15:09:06;;;;;;;11.52;4.55;;;31.70;95.40;;;;;;4872888;29;20132;-77
2023/06/20 15:11:33;;;;;;;11.45;4.93;;;31.70;95.60;;;;;;4862885;29;20054;-79
2023/06/20 15:13:59;;;;;;;11.52;4.72;;;31.70;95.60;;;;;;4862496;29;20060;-77
2023/06/20 15:16:26;;;;;;;9.30;5.50;;;31.70;95.80;;;;;;4867445;29;20049;-77
2023/06/20 15:18:53;;;;;;;17.02;4.93;;;31.70;96.00;;;;;;4876385;29;20132;-78
2023/06/20 15:21:21;;;;;;;12.98;5.38;;;31.70;95.30;;;;;;4886673;29;20060;-78
2023/06/20 15:23:48;;;;;;;7.45;4.15;;;31.70;95.60;;;;;;4863151;29;20060;-76
2023/06/20 15:26:15;;;;;;;13.52;5.15;;;31.80;95.80;;;;;;4870783;29;20100;-78
2023/06/20 15:28:42;;;;;;;9.35;4.63;;;31.90;95.50;;;;;;4883031;29;20451;-77
2023/06/20 15:31:11;;;;;;;11.90;4.97;;;31.90;95.40;;;;;;4885764;29;20521;-77
2023/06/20 15:33:38;;;;;;;10.57;5.05;;;31.90;95.60;;;;;;4887156;29;20060;-77
2023/06/20 15:36:05;;;;;;;11.68;4.25;;;31.90;95.30;;;;;;4891804;29;20059;-78
2023/06/20 15:38:32;;;;;;;12.18;4.65;;;31.80;95.80;;;;;;4888303;29;20072;-77
2023/06/20 15:41:02;;;;;;;11.70;5.50;;;31.80;95.90;;;;;;4893107;29;20127;-78
2023/06/20 15:43:29;;;;;;;6.78;4.95;;;31.70;96.00;;;;;;4888357;29;20097;-78
2023/06/20 15:45:55;;;;;;;10.88;4.70;;;31.70;96.10;;;;;;4885118;29;20104;-79
2023/06/20 15:48:24;;;;;;;10.43;4.68;;;31.60;96.30;;;;;;4886655;29;20045;-78
2023/06/20 15:50:51;;;;;;;11.30;4.88;;;31.50;96.50;;;;;;4892605;29;20044;-78
2023/06/20 15:53:18;;;;;;;11.65;5.45;;;31.50;96.80;;;;;;4891060;29;20049;-78
2023/06/20 15:55:44;;;;;;;11.05;4.80;;;31.40;97.10;;;;;;4889715;29;20093;-77
2023/06/20 15:58:11;;;;;;;10.70;4.35;;;31.30;97.80;;;;;;4888102;29;20116;-78
2023/06/20 16:00:38;;;;;;;11.35;4.50;;;31.20;98.50;;;;;;4887694;29;20093;-76
2023/06/20 16:03:05;;;;;;;9.75;4.50;;;31.10;99.10;;;;;;4884704;29;20077;-77
2023/06/20 16:05:32;;;;;;;13.10;4.65;;;31.00;99.20;;;;;;4873139;29;20471;-77
2023/06/20 16:07:59;;;;;;;12.25;5.00;;;30.80;99.30;;;;;;4870779;29;20049;-77
2023/06/20 16:10:26;;;;;;;10.85;4.43;;;30.70;99.60;;;;;;4890516;29;20051;-78
2023/06/20 16:12:53;;;;;;;10.38;4.80;;;30.60;99.90;;;;;;4891531;29;20115;-78
2023/06/20 16:15:20;;;;;;;10.23;5.40;;;30.50;99.90;;;;;;4891106;29;20505;-78
2023/06/20 16:17:48;;;;;;;10.43;5.45;;;30.40;99.90;;;;;;4888240;29;20053;-78
2023/06/20 16:20:15;;;;;;;9.63;5.28;;;30.20;99.90;;;;;;4889985;29;20057;-77
2023/06/20 16:22:42;;;;;;;15.52;5.80;;;30.00;99.90;;;;;;4897112;29;20057;-77
2023/06/20 16:25:09;;;;;;;10.93;5.55;;;29.90;99.90;;;;;;4891637;29;20060;-78
2023/06/20 16:27:36;;;;;;;11.77;4.97;;;29.80;99.90;;;;;;4890819;29;20570;-77
2023/06/20 16:30:03;;;;;;;11.27;5.00;;;29.70;99.90;;;;;;4887805;29;20045;-77
2023/06/20 16:32:30;;;;;;;12.00;5.80;;;29.60;99.90;;;;;;4881178;29;20053;-77
2023/06/20 16:34:57;;;;;;;12.68;4.82;;;29.60;99.90;;;;;;4886406;29;20684;-77
2023/06/20 16:37:24;;;;;;;14.85;5.13;;;29.60;99.90;;;;;;4896759;29;20371;-78
2023/06/20 16:39:51;;;;;;;8.95;5.05;;;29.70;99.90;;;;;;4883113;29;20511;-77
2023/06/20 16:42:19;;;;;;;9.20;5.28;;;29.70;99.90;;;;;;4897072;29;20048;-77
2023/06/20 16:44:46;;;;;;;10.85;5.25;;;29.70;99.90;;;;;;4888111;29;20049;-77
2023/06/20 16:47:14;;;;;;;8.77;5.38;;;29.80;99.90;;;;;;4896807;29;20053;-78
2023/06/20 16:49:41;;;;;;;12.65;5.45;;;29.90;99.90;;;;;;4867824;29;20045;-77
2023/06/20 16:52:08;;;;;;;12.27;5.78;;;30.00;99.90;;;;;;4893857;29;20399;-78
2023/06/20 16:54:35;;;;;;;11.35;5.10;;;30.00;99.90;;;;;;4884076;29;20108;-77
2023/06/20 16:57:02;;;;;;;9.15;4.93;;;30.10;99.90;;;;;;4893086;29;20096;-77
2023/06/20 16:59:29;;;;;;;13.00;4.82;;;30.10;99.90;;;;;;4884047;29;20061;-77
2023/06/20 17:01:55;;;;;;;11.10;4.70;;;30.20;99.90;;;;;;4883146;29;20116;-78
2023/06/20 17:04:22;;;;;;;10.75;5.18;;;30.20;99.90;;;;;;4886607;29;20061;-77
2023/06/20 17:06:49;;;;;;;9.85;5.07;;;30.30;99.90;;;;;;4891002;29;20040;-79
2023/06/20 17:09:15;;;;;;;10.75;5.00;;;30.30;99.90;;;;;;4886392;29;20105;-77
2023/06/20 17:11:42;;;;;;;9.75;5.00;;;30.30;99.90;;;;;;4888600;29;20045;-77
2023/06/20 17:14:09;;;;;;;15.75;4.47;;;30.30;99.90;;;;;;4889352;29;20087;-77
2023/06/20 17:16:36;;;;;;;10.80;4.97;;;30.20;99.90;;;;;;4890696;29;20087;-77
2023/06/20 17:19:03;;;;;;;12.90;5.00;;;30.20;99.90;;;;;;4893796;29;20479;-78
2023/06/20 17:21:29;;;;;;;9.45;4.65;;;30.10;99.90;;;;;;4898074;29;20525;-77
2023/06/20 17:23:56;;;;;;;8.43;4.57;;;30.00;99.90;;;;;;4904114;29;20173;-77
2023/06/20 17:26:23;;;;;;;13.77;5.03;;;30.00;99.90;;;;;;4893379;29;20044;-77
2023/06/20 17:28:50;;;;;;;16.50;6.07;;;29.90;99.90;;;;;;4895134;29;20065;-77
2023/06/20 17:31:17;;;;;;;12.15;4.75;;;29.80;99.90;;;;;;4882506;29;20044;-77
2023/06/20 17:33:44;;;;;;;10.65;5.50;;;29.70;99.90;;;;;;4900805;29;20045;-77
2023/06/20 17:36:11;;;;;;;12.80;5.82;;;29.70;99.90;;;;;;4894344;29;20049;-76
2023/06/20 17:38:37;;;;;;;16.10;6.57;;;29.70;99.90;;;;;;4895853;29;20071;-77
2023/06/20 17:41:06;;;;;;;10.98;5.07;;;29.60;99.90;;;;;;4889174;29;20095;-78
2023/06/20 17:43:32;;;;;;;11.85;4.65;;;29.60;99.90;;;;;;4894119;29;20573;-77
2023/06/20 17:45:59;;;;;;;7.22;4.25;;;29.50;99.90;;;;;;4888298;29;20528;-77
2023/06/20 17:48:26;;;;;;;10.88;4.93;;;29.50;99.90;;;;;;4894825;29;20053;-77
2023/06/20 17:50:53;;;;;;;11.52;4.57;;;29.50;99.90;;;;;;4891545;29;20054;-77
2023/06/20 17:53:20;;;;;;;9.73;4.72;;;29.50;99.90;;;;;;4895391;29;20162;-77
2023/06/20 17:55:46;;;;;;;11.18;5.60;;;29.40;99.90;;;;;;4893066;29;20076;-77
2023/06/20 17:58:13;;;;;;;10.65;5.72;;;29.40;99.90;;;;;;4900957;29;20139;-77
2023/06/20 18:00:40;;;;;;;10.77;4.88;;;29.30;99.90;;;;;;4898097;29;20083;-76
2023/06/20 18:03:06;;;;;;;11.57;4.70;;;29.30;99.90;;;;;;4900725;29;20063;-77
2023/06/20 18:05:33;;;;;;;13.38;4.88;;;29.30;99.90;;;;;;4896964;29;20092;-76
2023/06/20 18:08:00;;;;;;;8.63;4.90;;;29.20;99.90;;;;;;4887772;29;20467;-77
2023/06/20 18:10:27;;;;;;;10.88;4.93;;;29.20;99.90;;;;;;4883180;29;20132;-76
2023/06/20 18:12:57;;;;;;;11.18;5.03;;;29.20;99.90;;;;;;4882794;29;20640;-76
2023/06/20 18:15:25;;;;;;;9.30;5.23;;;29.10;99.90;;;;;;4880561;29;20044;-77
2023/06/20 18:17:52;;;;;;;10.68;5.43;;;29.10;99.90;;;;;;4888299;29;20048;-77
2023/06/20 18:20:19;;;;;;;10.98;5.40;;;29.00;99.90;;;;;;4886218;29;20059;-78
2023/06/20 18:22:46;;;;;;;11.60;4.90;;;29.00;99.90;;;;;;4887592;29;20060;-77
2023/06/20 18:25:12;;;;;;;12.48;5.50;;;28.90;99.90;;;;;;4887216;29;20076;-77
2023/06/20 18:27:39;;;;;;;11.57;5.10;;;28.90;99.90;;;;;;4885998;29;20080;-78
2023/06/20 18:30:07;;;;;;;12.63;5.05;;;28.80;99.90;;;;;;4870921;29;20057;-78
2023/06/20 18:32:34;;;;;;;14.63;5.57;;;28.80;99.90;;;;;;4887143;29;20084;-78
2023/06/20 18:35:01;;;;;;;11.52;5.05;;;28.70;99.90;;;;;;4889157;29;20056;-77
2023/06/20 18:37:29;;;;;;;9.60;4.85;;;28.70;99.90;;;;;;4879411;29;20116;-77
2023/06/20 18:39:56;;;;;;;14.68;5.68;;;28.70;99.90;;;;;;4871987;29;20060;-77
2023/06/20 18:42:22;;;;;;;9.45;5.00;;;28.60;99.90;;;;;;4883682;29;20144;-77
2023/06/20 18:44:49;;;;;;;12.05;5.47;;;28.60;99.90;;;;;;4870299;29;20073;-77
2023/06/20 18:47:16;;;;;;;11.32;5.60;;;28.60;99.90;;;;;;4880675;29;20113;-77